Time;durP1;ratioP1;P1;durP2;ratioP2;P2;SDS_P1;SDS_P2;PMS_P1;PMS_P2;Temp;Humidity;BMP_temperature;BMP_pressure;BME280_temperature;BME280_humidity;BME280_pressure;Samples;Min_cycle;Max_cycle;Signal;HPM_P1;HPM_P2
2023/04/28 00:01:32;;;;;;;3.42;1.90;;;;;;;;;;5011273;28;20312;-61
2023/04/28 00:03:57;;;;;;;2.43;1.53;;;;;;;;;;5003085;28;20038;-59
2023/04/28 00:06:23;;;;;;;2.05;1.38;;;;;;;;;;4989610;28;20096;-60
2023/04/28 00:08:48;;;;;;;2.13;1.53;;;;;;;;;;4994695;28;20605;-59
2023/04/28 00:11:13;;;;;;;3.60;1.60;;;;;;;;;;5000813;28;20502;-60
2023/04/28 00:13:38;;;;;;;2.80;1.52;;;;;;;;;;4994762;28;20037;-61
2023/04/28 00:16:04;;;;;;;2.03;1.63;;;;;;;;;;4980186;28;20021;-61
2023/04/28 00:18:29;;;;;;;3.03;1.73;;;;;;;;;;4992503;28;20312;-61
2023/04/28 00:20:55;;;;;;;2.58;1.88;;;;;;;;;;5015095;28;20260;-61
2023/04/28 00:23:20;;;;;;;2.75;1.92;;;;;;;;;;5008431;28;20520;-61
2023/04/28 00:25:49;;;;;;;2.22;1.48;;;;;;;;;;5007099;28;20589;-61
2023/04/28 00:28:15;;;;;;;2.10;1.33;;;;;;;;;;5005302;28;20037;-61
2023/04/28 00:30:40;;;;;;;2.10;1.40;;;;;;;;;;5015054;28;20057;-60
2023/04/28 00:33:05;;;;;;;2.67;1.60;;;;;;;;;;5015043;28;20367;-61
2023/04/28 00:35:30;;;;;;;2.10;1.60;;;;;;;;;;5006854;28;20112;-61
2023/04/28 00:37:55;;;;;;;1.85;1.42;;;;;;;;;;5014372;28;20220;-61
2023/04/28 00:40:21;;;;;;;2.43;1.50;;;;;;;;;;5005753;28;20521;-61
2023/04/28 00:42:46;;;;;;;1.95;1.50;;;;;;;;;;5009900;28;20509;-61
2023/04/28 00:45:11;;;;;;;2.00;1.50;;;;;;;;;;5006480;28;20038;-61
2023/04/28 00:47:37;;;;;;;2.03;1.57;;;;;;;;;;5010819;28;21214;-61
2023/04/28 00:50:05;;;;;;;1.90;1.38;;;;;;;;;;5007728;28;20304;-60
2023/04/28 00:52:30;;;;;;;2.75;1.58;;;;;;;;;;5021569;28;20114;-59
2023/04/28 00:54:55;;;;;;;2.60;1.33;;;;;;;;;;4998884;28;20450;-60
2023/04/28 00:57:21;;;;;;;2.83;1.83;;;;;;;;;;4980507;28;20057;-61
2023/04/28 00:59:46;;;;;;;2.15;1.42;;;;;;;;;;5016299;28;20277;-60
2023/04/28 01:02:18;;;;;;;2.23;1.60;;;;;;;;;;5014705;28;20112;-61
2023/04/28 01:04:43;;;;;;;1.80;1.33;;;;;;;;;;4997559;28;20034;-61
2023/04/28 01:07:08;;;;;;;2.08;1.30;;;;;;;;;;5008415;28;20490;-61
2023/04/28 01:09:34;;;;;;;2.97;1.53;;;;;;;;;;5004587;28;20053;-60
2023/04/28 01:11:59;;;;;;;2.78;1.40;;;;;;;;;;4980849;28;20276;-61
2023/04/28 01:14:25;;;;;;;1.70;1.20;;;;;;;;;;5017572;28;20053;-61
2023/04/28 01:16:50;;;;;;;2.13;1.52;;;;;;;;;;4987976;28;20038;-62
2023/04/28 01:19:17;;;;;;;2.08;1.33;;;;;;;;;;5016719;28;20566;-60
2023/04/28 01:21:42;;;;;;;2.50;1.50;;;;;;;;;;4989431;28;20065;-61
2023/04/28 01:24:08;;;;;;;1.77;1.37;;;;;;;;;;5005268;28;20033;-61
2023/04/28 01:26:33;;;;;;;2.27;1.50;;;;;;;;;;4993884;28;20280;-61
2023/04/28 01:28:59;;;;;;;2.25;1.25;;;;;;;;;;5019033;28;20111;-62
2023/04/28 01:31:24;;;;;;;2.40;1.45;;;;;;;;;;5012113;28;20194;-62
2023/04/28 01:33:49;;;;;;;1.90;1.20;;;;;;;;;;5005604;28;20029;-62
2023/04/28 01:36:14;;;;;;;1.93;1.30;;;;;;;;;;5022741;28;20861;-61
2023/04/28 01:38:40;;;;;;;1.70;1.20;;;;;;;;;;5008381;28;20514;-62
2023/04/28 01:41:05;;;;;;;2.30;1.60;;;;;;;;;;4994119;28;20077;-61
2023/04/28 01:43:30;;;;;;;1.70;1.30;;;;;;;;;;5007626;28;20359;-62
2023/04/28 01:45:55;;;;;;;1.63;1.20;;;;;;;;;;5003244;28;20343;-61
2023/04/28 01:48:21;;;;;;;2.23;1.30;;;;;;;;;;5016243;28;20828;-61
2023/04/28 01:50:46;;;;;;;2.07;1.37;;;;;;;;;;5002955;28;20285;-61
2023/04/28 01:53:11;;;;;;;2.30;1.20;;;;;;;;;;4994484;28;20781;-62
2023/04/28 01:55:37;;;;;;;1.70;1.13;;;;;;;;;;4993322;28;20331;-61
2023/04/28 01:58:02;;;;;;;1.88;1.33;;;;;;;;;;5009896;28;20113;-61
2023/04/28 02:00:27;;;;;;;2.22;1.20;;;;;;;;;;5015333;28;20033;-61
2023/04/28 02:02:53;;;;;;;1.27;1.17;;;;;;;;;;5006448;28;20493;-62
2023/04/28 02:05:18;;;;;;;2.42;1.30;;;;;;;;;;4992928;28;20527;-61
2023/04/28 02:07:44;;;;;;;1.80;1.40;;;;;;;;;;5018627;28;20059;-60
2023/04/28 02:10:09;;;;;;;2.22;1.30;;;;;;;;;;5012321;28;20825;-61
2023/04/28 02:12:34;;;;;;;2.13;1.45;;;;;;;;;;5015129;28;20072;-61
2023/04/28 02:15:00;;;;;;;2.73;1.40;;;;;;;;;;5012612;28;20367;-62
2023/04/28 02:17:25;;;;;;;2.13;1.47;;;;;;;;;;4982728;28;20276;-61
2023/04/28 02:19:55;;;;;;;1.60;1.10;;;;;;;;;;4996104;28;20279;-61
2023/04/28 02:22:20;;;;;;;1.80;1.35;;;;;;;;;;4977686;28;20034;-61
2023/04/28 02:24:45;;;;;;;1.70;1.30;;;;;;;;;;5015345;28;20128;-62
2023/04/28 02:27:11;;;;;;;2.03;1.00;;;;;;;;;;5012563;28;20804;-61
2023/04/28 02:29:36;;;;;;;2.05;1.45;;;;;;;;;;5006088;28;20514;-61
2023/04/28 02:32:03;;;;;;;2.10;1.07;;;;;;;;;;5020051;28;20025;-61
2023/04/28 02:34:28;;;;;;;1.58;1.10;;;;;;;;;;5005406;28;20037;-61
2023/04/28 02:36:53;;;;;;;1.50;1.20;;;;;;;;;;5013828;28;20067;-61
2023/04/28 02:39:20;;;;;;;1.87;1.00;;;;;;;;;;4984194;28;20317;-61
2023/04/28 02:41:46;;;;;;;1.90;1.35;;;;;;;;;;4997771;28;20292;-61
2023/04/28 02:44:11;;;;;;;2.03;1.30;;;;;;;;;;4993021;28;20042;-61
2023/04/28 02:46:36;;;;;;;1.83;1.10;;;;;;;;;;5012185;28;20291;-60
2023/04/28 02:49:01;;;;;;;1.25;1.00;;;;;;;;;;5012756;28;20056;-61
2023/04/28 02:51:27;;;;;;;1.77;1.27;;;;;;;;;;5008140;28;20045;-61
2023/04/28 02:53:52;;;;;;;2.03;1.25;;;;;;;;;;5014155;28;20397;-62
2023/04/28 02:56:18;;;;;;;1.75;1.20;;;;;;;;;;5009289;28;20147;-62
2023/04/28 02:58:43;;;;;;;1.50;1.20;;;;;;;;;;5014238;28;20040;-61
2023/04/28 03:01:08;;;;;;;1.83;1.10;;;;;;;;;;5012734;28;20300;-63
2023/04/28 03:03:33;;;;;;;1.90;1.13;;;;;;;;;;5009673;28;20914;-60
2023/04/28 03:05:59;;;;;;;1.57;1.03;;;;;;;;;;4990983;28;20038;-61
2023/04/28 03:08:24;;;;;;;2.13;1.33;;;;;;;;;;5004971;28;20319;-61
2023/04/28 03:10:49;;;;;;;1.98;1.35;;;;;;;;;;5000577;28;20315;-60
2023/04/28 03:13:15;;;;;;;1.60;1.10;;;;;;;;;;5006395;28;20703;-60
2023/04/28 03:15:40;;;;;;;1.80;1.30;;;;;;;;;;4986663;28;20285;-60
2023/04/28 03:18:05;;;;;;;1.70;1.40;;;;;;;;;;5002068;28;20543;-59
2023/04/28 03:20:30;;;;;;;1.87;1.30;;;;;;;;;;5012123;28;21025;-60
2023/04/28 03:22:56;;;;;;;1.40;1.17;;;;;;;;;;5011881;28;20280;-60
2023/04/28 03:25:21;;;;;;;1.95;1.10;;;;;;;;;;5002699;28;20277;-61
2023/04/28 03:27:46;;;;;;;2.03;1.10;;;;;;;;;;5001511;28;20029;-60
2023/04/28 03:30:11;;;;;;;1.20;0.80;;;;;;;;;;5004871;28;20298;-60
2023/04/28 03:32:37;;;;;;;1.48;1.00;;;;;;;;;;5001906;28;20712;-61
2023/04/28 03:35:02;;;;;;;1.67;1.20;;;;;;;;;;5000375;28;20454;-60
2023/04/28 03:37:27;;;;;;;1.85;1.10;;;;;;;;;;5000885;28;20053;-61
2023/04/28 03:39:53;;;;;;;1.70;1.08;;;;;;;;;;4995219;28;20037;-60
2023/04/28 03:42:18;;;;;;;1.40;1.10;;;;;;;;;;4982256;28;20030;-60
2023/04/28 03:44:43;;;;;;;2.50;1.20;;;;;;;;;;5006990;28;20292;-60
2023/04/28 03:47:09;;;;;;;1.77;1.10;;;;;;;;;;4976618;28;20457;-61
2023/04/28 03:49:34;;;;;;;2.33;1.08;;;;;;;;;;5004345;28;20049;-59
2023/04/28 03:52:00;;;;;;;3.65;1.50;;;;;;;;;;5003540;28;20058;-61
2023/04/28 03:54:25;;;;;;;1.92;0.93;;;;;;;;;;5005011;28;20112;-61
2023/04/28 03:56:50;;;;;;;2.30;0.90;;;;;;;;;;5008091;28;20038;-61
2023/04/28 03:59:16;;;;;;;1.37;1.00;;;;;;;;;;5007610;28;20042;-60
2023/04/28 04:01:42;;;;;;;1.40;0.93;;;;;;;;;;5006698;28;20076;-60
2023/04/28 04:04:07;;;;;;;1.27;0.80;;;;;;;;;;4995235;28;20518;-59
2023/04/28 04:06:32;;;;;;;1.55;0.90;;;;;;;;;;5011836;28;20297;-61
2023/04/28 04:08:58;;;;;;;1.48;1.05;;;;;;;;;;5011105;28;20561;-60
2023/04/28 04:11:23;;;;;;;1.88;0.90;;;;;;;;;;5011679;28;20053;-60
2023/04/28 04:13:48;;;;;;;1.00;0.80;;;;;;;;;;4992610;28;20833;-59
2023/04/28 04:16:14;;;;;;;2.17;1.27;;;;;;;;;;5009763;28;20824;-60
2023/04/28 04:18:40;;;;;;;1.40;0.88;;;;;;;;;;5007187;28;20367;-60
2023/04/28 04:21:05;;;;;;;1.33;1.00;;;;;;;;;;4999166;28;20112;-60
2023/04/28 04:23:30;;;;;;;1.40;0.82;;;;;;;;;;4995043;28;20091;-60
2023/04/28 04:25:55;;;;;;;1.20;0.90;;;;;;;;;;4993673;28;20034;-61
2023/04/28 04:28:21;;;;;;;1.70;1.00;;;;;;;;;;5010971;28;20049;-60
2023/04/28 04:30:46;;;;;;;1.43;1.10;;;;;;;;;;5010954;28;20145;-61
2023/04/28 04:33:12;;;;;;;1.60;0.93;;;;;;;;;;4996342;28;20033;-61
2023/04/28 04:35:37;;;;;;;1.38;0.90;;;;;;;;;;4999093;28;20146;-61
2023/04/28 04:38:02;;;;;;;1.40;0.88;;;;;;;;;;5009907;28;20061;-61
2023/04/28 04:40:28;;;;;;;1.77;1.10;;;;;;;;;;5009975;28;20497;-60
2023/04/28 04:42:53;;;;;;;1.70;0.88;;;;;;;;;;4992241;28;20387;-61
2023/04/28 04:45:18;;;;;;;1.20;1.00;;;;;;;;;;4997693;28;20041;-62
2023/04/28 04:47:43;;;;;;;2.05;1.02;;;;;;;;;;5010490;28;20308;-61
2023/04/28 04:50:09;;;;;;;2.35;1.00;;;;;;;;;;5010990;28;20135;-60
2023/04/28 04:52:34;;;;;;;1.85;0.85;;;;;;;;;;5006401;28;20136;-61
2023/04/28 04:55:00;;;;;;;1.37;0.80;;;;;;;;;;5009742;28;20469;-60
2023/04/28 04:57:25;;;;;;;2.17;0.90;;;;;;;;;;4993084;28;20578;-62
2023/04/28 04:59:50;;;;;;;1.45;0.95;;;;;;;;;;5010075;28;20728;-62
2023/04/28 05:02:16;;;;;;;1.60;0.80;;;;;;;;;;4993286;28;20049;-61
2023/04/28 05:04:41;;;;;;;1.33;0.80;;;;;;;;;;4997357;28;20064;-61
2023/04/28 05:07:06;;;;;;;1.23;0.77;;;;;;;;;;5010713;28;20446;-63
2023/04/28 05:09:32;;;;;;;1.47;0.93;;;;;;;;;;5009755;28;20336;-60
2023/04/28 05:11:58;;;;;;;2.58;1.08;;;;;;;;;;5009426;28;20638;-61
2023/04/28 05:14:23;;;;;;;1.30;0.80;;;;;;;;;;4993196;28;20120;-61
2023/04/28 05:16:48;;;;;;;1.58;0.82;;;;;;;;;;4992753;28;20030;-62
2023/04/28 05:19:14;;;;;;;1.27;0.87;;;;;;;;;;4992866;28;20042;-61
2023/04/28 05:21:39;;;;;;;1.35;0.98;;;;;;;;;;4999347;28;20076;-60
2023/04/28 05:24:04;;;;;;;1.77;0.87;;;;;;;;;;5011209;28;20033;-62
2023/04/28 05:26:30;;;;;;;1.27;0.80;;;;;;;;;;5010706;28;20300;-61
2023/04/28 05:28:55;;;;;;;1.88;0.93;;;;;;;;;;5009385;28;20700;-63
2023/04/28 05:31:20;;;;;;;1.87;0.90;;;;;;;;;;5011219;28;20065;-62
2023/04/28 05:33:45;;;;;;;1.30;0.90;;;;;;;;;;5012307;28;20775;-61
2023/04/28 05:36:11;;;;;;;1.47;1.00;;;;;;;;;;4983029;28;20494;-61
2023/04/28 05:38:37;;;;;;;1.75;1.10;;;;;;;;;;4998903;28;20045;-61
2023/04/28 05:41:02;;;;;;;0.90;0.70;;;;;;;;;;4995002;28;20392;-61
2023/04/28 05:43:27;;;;;;;1.27;0.87;;;;;;;;;;5011516;28;20110;-60
2023/04/28 05:45:52;;;;;;;2.60;0.90;;;;;;;;;;5007037;28;20303;-60
2023/04/28 05:48:18;;;;;;;1.80;0.83;;;;;;;;;;5008961;28;20655;-61
2023/04/28 05:50:43;;;;;;;1.70;1.10;;;;;;;;;;4994788;28;20696;-62
2023/04/28 05:53:08;;;;;;;1.63;0.90;;;;;;;;;;4989121;28;20061;-60
2023/04/28 05:55:35;;;;;;;1.20;0.80;;;;;;;;;;4983182;28;20549;-61
2023/04/28 05:58:00;;;;;;;1.60;0.82;;;;;;;;;;4988954;28;22253;-61
2023/04/28 06:00:26;;;;;;;2.00;1.08;;;;;;;;;;4991876;28;20040;-61
2023/04/28 06:02:51;;;;;;;1.00;0.80;;;;;;;;;;5010770;28;20529;-64
2023/04/28 06:05:16;;;;;;;1.90;0.90;;;;;;;;;;5008609;28;20037;-59
2023/04/28 06:07:42;;;;;;;1.58;0.93;;;;;;;;;;4997798;28;20114;-62
2023/04/28 06:10:07;;;;;;;1.67;0.80;;;;;;;;;;5011750;28;20514;-64
2023/04/28 06:12:33;;;;;;;1.40;0.77;;;;;;;;;;5007985;28;20616;-63
2023/04/28 06:14:58;;;;;;;1.45;0.80;;;;;;;;;;5008283;28;20038;-63
2023/04/28 06:17:23;;;;;;;1.30;0.70;;;;;;;;;;4992843;28;20099;-59
2023/04/28 06:19:50;;;;;;;1.90;0.98;;;;;;;;;;5010290;28;21662;-62
2023/04/28 06:22:15;;;;;;;4.50;1.65;;;;;;;;;;5008691;28;20034;-64
2023/04/28 06:24:41;;;;;;;1.50;0.77;;;;;;;;;;5010544;28;20119;-66
2023/04/28 06:27:06;;;;;;;2.33;0.82;;;;;;;;;;5010513;28;20355;-63
2023/04/28 06:29:32;;;;;;;1.87;0.80;;;;;;;;;;4991743;28;20882;-66
2023/04/28 06:31:57;;;;;;;2.40;0.80;;;;;;;;;;5007775;28;20608;-68
2023/04/28 06:34:27;;;;;;;1.27;0.68;;;;;;;;;;5003003;28;20622;-63
2023/04/28 06:36:53;;;;;;;1.13;0.68;;;;;;;;;;5006555;28;20034;-63
2023/04/28 06:39:18;;;;;;;2.15;1.00;;;;;;;;;;5010282;28;20151;-64
2023/04/28 06:41:43;;;;;;;1.17;0.70;;;;;;;;;;4992626;28;20088;-67
2023/04/28 06:44:09;;;;;;;1.42;0.90;;;;;;;;;;4993938;28;20107;-67
2023/04/28 06:46:35;;;;;;;1.73;0.70;;;;;;;;;;5008816;28;20080;-62
2023/04/28 06:49:00;;;;;;;1.08;0.70;;;;;;;;;;4993017;28;20422;-64
2023/04/28 06:51:26;;;;;;;1.60;0.90;;;;;;;;;;5010509;28;20675;-63
2023/04/28 06:53:52;;;;;;;1.43;0.83;;;;;;;;;;5008341;28;20040;-64
2023/04/28 06:56:17;;;;;;;1.90;0.98;;;;;;;;;;5009601;28;20045;-66
2023/04/28 06:58:42;;;;;;;1.43;0.97;;;;;;;;;;5008817;28;20049;-68
2023/04/28 07:01:08;;;;;;;1.60;0.77;;;;;;;;;;4991562;28;20284;-62
2023/04/28 07:03:33;;;;;;;1.10;0.70;;;;;;;;;;4996300;28;20034;-62
2023/04/28 07:05:58;;;;;;;0.80;0.60;;;;;;;;;;5009922;28;20037;-63
2023/04/28 07:08:23;;;;;;;1.27;0.77;;;;;;;;;;5008263;28;20030;-62
2023/04/28 07:10:49;;;;;;;1.43;0.70;;;;;;;;;;4990188;28;20085;-65
2023/04/28 07:13:14;;;;;;;1.53;0.90;;;;;;;;;;4994546;28;20175;-65
2023/04/28 07:15:40;;;;;;;1.00;0.65;;;;;;;;;;5009274;28;20049;-62
2023/04/28 07:18:05;;;;;;;3.05;1.13;;;;;;;;;;5008166;28;20466;-61
2023/04/28 07:20:30;;;;;;;0.93;0.70;;;;;;;;;;4978202;28;20073;-62
2023/04/28 07:22:56;;;;;;;1.42;0.60;;;;;;;;;;4989974;28;21282;-61
2023/04/28 07:25:21;;;;;;;1.70;0.80;;;;;;;;;;4992074;28;20115;-64
2023/04/28 07:27:46;;;;;;;2.70;0.85;;;;;;;;;;4992916;28;20045;-64
2023/04/28 07:30:12;;;;;;;0.98;0.55;;;;;;;;;;5005963;28;20050;-65
2023/04/28 07:32:37;;;;;;;1.27;0.95;;;;;;;;;;5008650;28;20715;-66
2023/04/28 07:35:03;;;;;;;1.10;0.70;;;;;;;;;;4996283;28;20034;-63
2023/04/28 07:37:28;;;;;;;1.15;0.60;;;;;;;;;;4988249;28;20305;-64
2023/04/28 07:39:53;;;;;;;1.67;0.80;;;;;;;;;;4988290;28;20069;-63
2023/04/28 07:42:19;;;;;;;1.65;0.77;;;;;;;;;;4988425;28;20499;-63
2023/04/28 07:44:44;;;;;;;1.00;0.73;;;;;;;;;;4989547;28;20026;-67
2023/04/28 07:47:10;;;;;;;1.15;0.57;;;;;;;;;;4995186;28;20801;-68
2023/04/28 07:49:35;;;;;;;1.17;0.70;;;;;;;;;;4989088;28;20815;-63
2023/04/28 07:52:01;;;;;;;1.20;0.80;;;;;;;;;;4992025;28;20149;-65
2023/04/28 07:54:26;;;;;;;1.08;0.70;;;;;;;;;;4980587;28;20790;-64
2023/04/28 07:56:51;;;;;;;1.27;0.60;;;;;;;;;;4989733;28;20790;-65
2023/04/28 07:59:17;;;;;;;1.30;0.60;;;;;;;;;;4991970;28;20846;-65
2023/04/28 08:01:42;;;;;;;1.47;0.80;;;;;;;;;;4991724;28;20296;-66
2023/04/28 08:04:07;;;;;;;1.60;0.80;;;;;;;;;;4987291;28;20395;-70
2023/04/28 08:06:33;;;;;;;1.25;0.63;;;;;;;;;;4979389;28;20526;-66
2023/04/28 08:08:59;;;;;;;1.10;0.70;;;;;;;;;;4982029;28;20043;-66
2023/04/28 08:11:24;;;;;;;1.55;0.88;;;;;;;;;;4981468;28;20084;-67
2023/04/28 08:13:49;;;;;;;1.53;0.90;;;;;;;;;;4985108;28;20059;-66
2023/04/28 08:16:14;;;;;;;1.77;1.00;;;;;;;;;;4998549;28;20050;-63
2023/04/28 08:18:40;;;;;;;1.55;0.93;;;;;;;;;;4998540;28;20038;-62
2023/04/28 08:21:05;;;;;;;0.97;0.70;;;;;;;;;;4982612;28;20034;-62
2023/04/28 08:23:30;;;;;;;1.05;0.80;;;;;;;;;;4987970;28;20282;-60
2023/04/28 08:25:56;;;;;;;2.47;0.88;;;;;;;;;;4991642;28;20659;-65
2023/04/28 08:28:21;;;;;;;1.33;0.70;;;;;;;;;;4985771;28;20038;-65
2023/04/28 08:30:47;;;;;;;1.42;0.68;;;;;;;;;;4982534;28;20565;-65
2023/04/28 08:33:12;;;;;;;1.70;0.80;;;;;;;;;;4990985;28;20066;-66
2023/04/28 08:35:37;;;;;;;2.43;0.80;;;;;;;;;;4981407;28;20316;-64
2023/04/28 08:38:02;;;;;;;1.52;0.75;;;;;;;;;;4979149;28;20056;-65
2023/04/28 08:40:30;;;;;;;1.52;0.80;;;;;;;;;;4981261;28;20206;-61
2023/04/28 08:42:55;;;;;;;1.20;0.77;;;;;;;;;;4984724;28;20069;-66
2023/04/28 08:45:20;;;;;;;1.23;0.90;;;;;;;;;;5001014;28;20058;-67
2023/04/28 08:47:48;;;;;;;1.65;1.02;;;;;;;;;;4985328;28;20026;-66
2023/04/28 08:50:13;;;;;;;1.60;1.00;;;;;;;;;;4983210;28;20058;-67
2023/04/28 08:52:40;;;;;;;1.60;0.88;;;;;;;;;;4995670;28;20067;-62
2023/04/28 08:55:06;;;;;;;1.98;0.82;;;;;;;;;;4966491;28;20418;-60
2023/04/28 08:57:34;;;;;;;1.52;0.93;;;;;;;;;;4966127;28;20134;-62
2023/04/28 09:00:00;;;;;;;2.25;0.98;;;;;;;;;;4991162;28;20039;-60
2023/04/28 09:02:25;;;;;;;1.48;0.90;;;;;;;;;;4982385;28;20112;-61
2023/04/28 09:04:50;;;;;;;1.15;0.75;;;;;;;;;;5002753;28;20053;-67
2023/04/28 09:07:16;;;;;;;2.07;0.80;;;;;;;;;;4986419;28;20426;-65
2023/04/28 09:09:41;;;;;;;1.85;0.85;;;;;;;;;;4988495;28;20304;-63
2023/04/28 09:12:06;;;;;;;4.38;1.23;;;;;;;;;;4992889;28;20046;-68
2023/04/28 09:14:35;;;;;;;2.63;0.93;;;;;;;;;;4988326;28;20577;-69
2023/04/28 09:17:00;;;;;;;1.92;0.85;;;;;;;;;;4988018;28;20041;-65
2023/04/28 09:19:35;;;;;;;2.83;0.88;;;;;;;;;;4992317;28;20038;-64
2023/04/28 09:22:00;;;;;;;2.25;0.60;;;;;;;;;;4992203;28;20034;-71
2023/04/28 09:24:32;;;;;;;2.88;0.85;;;;;;;;;;4993530;28;20041;-72
2023/04/28 09:26:58;;;;;;;3.63;0.85;;;;;;;;;;4994341;28;20059;-65
2023/04/28 09:29:23;;;;;;;1.90;1.00;;;;;;;;;;4992174;28;20714;-66
2023/04/28 09:31:49;;;;;;;3.40;0.90;;;;;;;;;;4993043;28;20057;-63
2023/04/28 09:34:14;;;;;;;2.30;1.20;;;;;;;;;;4991472;28;20803;-68
2023/04/28 09:36:39;;;;;;;8.23;1.10;;;;;;;;;;4991824;28;20026;-70
2023/04/28 09:39:04;;;;;;;3.20;1.03;;;;;;;;;;4990129;28;20816;-70
2023/04/28 09:41:40;;;;;;;3.40;1.05;;;;;;;;;;4989107;28;20273;-63
2023/04/28 09:44:23;;;;;;;4.78;1.20;;;;;;;;;;4992107;28;20041;-65
2023/04/28 09:46:48;;;;;;;2.65;1.23;;;;;;;;;;4991643;28;20042;-66
2023/04/28 09:49:14;;;;;;;4.07;1.17;;;;;;;;;;4994202;28;20052;-64
2023/04/28 09:51:39;;;;;;;1.90;1.15;;;;;;;;;;4999214;28;20293;-63
2023/04/28 09:54:05;;;;;;;3.15;1.10;;;;;;;;;;5000947;28;20120;-67
2023/04/28 09:56:31;;;;;;;2.42;0.90;;;;;;;;;;4996510;28;20041;-65
2023/04/28 09:58:59;;;;;;;2.78;1.00;;;;;;;;;;4996069;28;20076;-60
2023/04/28 10:01:26;;;;;;;2.58;1.05;;;;;;;;;;4990784;28;20030;-65
2023/04/28 10:03:52;;;;;;;2.75;1.10;;;;;;;;;;4990733;28;20038;-68
2023/04/28 10:06:17;;;;;;;2.72;1.27;;;;;;;;;;4991399;28;20041;-66
2023/04/28 10:08:44;;;;;;;2.25;0.90;;;;;;;;;;4992114;28;20106;-65
2023/04/28 10:11:09;;;;;;;1.83;0.90;;;;;;;;;;4989976;28;20119;-60
2023/04/28 10:13:35;;;;;;;3.05;1.40;;;;;;;;;;4973531;28;20683;-61
2023/04/28 10:16:01;;;;;;;2.20;0.93;;;;;;;;;;4988620;28;20038;-63
2023/04/28 10:18:26;;;;;;;3.05;1.00;;;;;;;;;;5003063;28;20069;-70
2023/04/28 10:20:52;;;;;;;1.63;0.98;;;;;;;;;;4990512;28;20046;-65
2023/04/28 10:23:17;;;;;;;3.05;1.08;;;;;;;;;;4990389;28;20627;-61
2023/04/28 10:25:43;;;;;;;2.73;1.23;;;;;;;;;;4989900;28;20038;-65
2023/04/28 10:28:08;;;;;;;3.47;1.00;;;;;;;;;;4990671;28;20035;-63
2023/04/28 10:30:34;;;;;;;3.40;1.17;;;;;;;;;;4990920;28;20757;-66
2023/04/28 10:33:12;;;;;;;2.05;0.90;;;;;;;;;;4995043;28;20510;-63
2023/04/28 10:35:44;;;;;;;1.50;0.90;;;;;;;;;;4989504;28;20052;-71
2023/04/28 10:38:09;;;;;;;2.28;1.20;;;;;;;;;;5004379;28;20119;-60
2023/04/28 10:40:34;;;;;;;3.70;0.80;;;;;;;;;;5009664;28;20057;-71
2023/04/28 10:43:00;;;;;;;2.15;1.05;;;;;;;;;;5009829;28;20334;-62
2023/04/28 10:45:44;;;;;;;2.10;0.90;;;;;;;;;;5011020;28;20045;-69
2023/04/28 10:48:09;;;;;;;2.03;0.80;;;;;;;;;;5010455;28;20122;-65
2023/04/28 10:50:36;;;;;;;2.15;0.90;;;;;;;;;;4992526;28;20053;-62
2023/04/28 10:53:01;;;;;;;1.15;0.75;;;;;;;;;;5009545;28;20045;-63
2023/04/28 10:55:29;;;;;;;2.27;1.00;;;;;;;;;;4991935;28;20053;-66
2023/04/28 10:58:13;;;;;;;2.35;1.20;;;;;;;;;;4996956;28;20335;-69
2023/04/28 11:00:39;;;;;;;2.72;1.17;;;;;;;;;;5009730;28;20041;-68
2023/04/28 11:03:05;;;;;;;2.53;0.93;;;;;;;;;;5009128;28;21974;-63
2023/04/28 11:05:31;;;;;;;2.67;1.05;;;;;;;;;;4980757;28;20049;-66
2023/04/28 11:08:26;;;;;;;2.30;1.15;;;;;;;;;;5009102;28;20041;-63
2023/04/28 11:11:10;;;;;;;3.28;1.35;;;;;;;;;;4986862;28;20057;-69
2023/04/28 11:13:35;;;;;;;2.22;0.90;;;;;;;;;;4990630;28;20091;-67
2023/04/28 11:16:04;;;;;;;2.85;1.08;;;;;;;;;;5010125;28;20041;-67
2023/04/28 11:18:30;;;;;;;2.10;1.02;;;;;;;;;;4996344;28;20197;-67
2023/04/28 11:20:56;;;;;;;2.83;1.17;;;;;;;;;;4997235;28;20801;-67
2023/04/28 11:23:22;;;;;;;2.50;1.00;;;;;;;;;;5008545;28;20049;-68
2023/04/28 11:25:56;;;;;;;2.83;1.20;;;;;;;;;;4981033;28;20034;-69
2023/04/28 11:28:22;;;;;;;2.67;1.20;;;;;;;;;;4991163;28;20041;-68
2023/04/28 11:30:47;;;;;;;3.03;1.10;;;;;;;;;;5009867;28;21070;-68
2023/04/28 11:33:12;;;;;;;2.63;1.13;;;;;;;;;;4996447;28;20403;-70
2023/04/28 11:35:41;;;;;;;3.63;1.00;;;;;;;;;;4975220;28;20021;-66
2023/04/28 11:38:06;;;;;;;4.18;1.25;;;;;;;;;;4986748;28;20885;-66
2023/04/28 11:40:31;;;;;;;2.55;0.90;;;;;;;;;;5008476;28;20045;-65
2023/04/28 11:42:58;;;;;;;3.00;1.00;;;;;;;;;;4974889;28;20144;-68
2023/04/28 11:45:23;;;;;;;4.65;0.98;;;;;;;;;;5008021;28;20120;-68
2023/04/28 11:47:49;;;;;;;1.60;1.00;;;;;;;;;;4990617;28;20573;-64
2023/04/28 11:50:14;;;;;;;2.80;1.07;;;;;;;;;;4973159;28;20127;-66
2023/04/28 11:52:49;;;;;;;1.95;1.20;;;;;;;;;;5007006;28;20692;-68
2023/04/28 11:55:17;;;;;;;3.75;1.20;;;;;;;;;;4997125;28;20429;-69
2023/04/28 11:57:42;;;;;;;3.58;1.50;;;;;;;;;;5008242;28;20038;-71
2023/04/28 12:00:18;;;;;;;5.03;1.27;;;;;;;;;;4990473;28;20130;-64
2023/04/28 12:02:43;;;;;;;3.33;1.20;;;;;;;;;;4991259;28;20561;-68
2023/04/28 12:05:09;;;;;;;2.67;1.02;;;;;;;;;;5011441;28;20137;-62
2023/04/28 12:07:42;;;;;;;2.70;0.88;;;;;;;;;;4993683;28;20093;-68
2023/04/28 12:10:11;;;;;;;1.92;1.00;;;;;;;;;;5011808;28;20132;-67
2023/04/28 12:12:36;;;;;;;4.23;1.10;;;;;;;;;;4995399;28;20468;-66
2023/04/28 12:15:03;;;;;;;2.30;1.10;;;;;;;;;;4994962;28;20913;-77
2023/04/28 12:17:29;;;;;;;2.03;1.00;;;;;;;;;;5009362;28;20310;-67
2023/04/28 12:19:55;;;;;;;2.72;1.35;;;;;;;;;;5008381;28;20454;-68
2023/04/28 12:22:20;;;;;;;3.60;1.00;;;;;;;;;;4998819;28;20033;-63
2023/04/28 12:24:45;;;;;;;2.73;1.07;;;;;;;;;;4997713;28;20544;-67
2023/04/28 12:27:15;;;;;;;1.63;0.80;;;;;;;;;;4979282;28;20292;-70
2023/04/28 12:29:40;;;;;;;2.25;1.13;;;;;;;;;;5013532;28;20050;-66
2023/04/28 12:32:06;;;;;;;2.33;1.00;;;;;;;;;;5012027;28;20594;-69
2023/04/28 12:34:32;;;;;;;2.95;1.00;;;;;;;;;;5011781;28;20034;-68
2023/04/28 12:36:58;;;;;;;1.70;1.00;;;;;;;;;;5013565;28;20106;-65
2023/04/28 12:39:23;;;;;;;3.05;1.00;;;;;;;;;;4996587;28;20042;-65
2023/04/28 12:41:49;;;;;;;2.65;1.02;;;;;;;;;;5013430;28;20660;-71
2023/04/28 12:44:14;;;;;;;2.40;1.08;;;;;;;;;;4984287;28;20038;-71
2023/04/28 12:46:40;;;;;;;3.05;1.20;;;;;;;;;;5013897;28;20048;-63
2023/04/28 12:49:06;;;;;;;3.45;1.10;;;;;;;;;;5013301;28;20602;-65
2023/04/28 12:51:33;;;;;;;3.08;1.48;;;;;;;;;;4999828;28;20049;-62
2023/04/28 12:53:59;;;;;;;3.05;1.33;;;;;;;;;;4995411;28;20033;-64
2023/04/28 12:56:24;;;;;;;2.50;1.10;;;;;;;;;;5011721;28;21837;-62
2023/04/28 12:58:49;;;;;;;2.83;1.05;;;;;;;;;;5011825;28;20084;-71
2023/04/28 13:01:14;;;;;;;2.73;1.03;;;;;;;;;;4996948;28;20056;-71
2023/04/28 13:03:40;;;;;;;2.55;1.25;;;;;;;;;;4999065;28;20049;-62
2023/04/28 13:06:05;;;;;;;2.70;1.08;;;;;;;;;;5013504;28;20053;-71
2023/04/28 13:08:32;;;;;;;3.40;1.10;;;;;;;;;;5008675;28;20434;-72
2023/04/28 13:10:58;;;;;;;2.88;1.20;;;;;;;;;;5009660;28;20289;-66
2023/04/28 13:13:23;;;;;;;3.33;1.40;;;;;;;;;;4980314;28;20041;-66
2023/04/28 13:15:48;;;;;;;3.10;1.30;;;;;;;;;;5009873;28;20857;-69
2023/04/28 13:18:13;;;;;;;3.77;1.03;;;;;;;;;;5001301;28;20041;-69
2023/04/28 13:20:39;;;;;;;2.10;0.93;;;;;;;;;;5004603;28;20744;-74
2023/04/28 13:23:04;;;;;;;4.10;0.98;;;;;;;;;;5005119;28;20300;-69
2023/04/28 13:25:30;;;;;;;2.97;1.00;;;;;;;;;;5003097;28;20099;-62
2023/04/28 13:27:55;;;;;;;3.17;1.05;;;;;;;;;;5015807;28;20533;-63
2023/04/28 13:30:20;;;;;;;2.20;1.00;;;;;;;;;;5022218;28;20073;-65
2023/04/28 13:32:46;;;;;;;1.67;0.95;;;;;;;;;;4985423;28;20277;-68
2023/04/28 13:35:11;;;;;;;3.17;1.35;;;;;;;;;;4992605;28;20533;-65
2023/04/28 13:37:41;;;;;;;2.97;1.30;;;;;;;;;;4998773;28;20502;-65
2023/04/28 13:40:07;;;;;;;2.70;1.00;;;;;;;;;;4998972;28;20283;-66
2023/04/28 13:42:32;;;;;;;2.33;1.02;;;;;;;;;;4988167;28;20037;-74
2023/04/28 13:44:58;;;;;;;3.67;1.25;;;;;;;;;;4992458;28;20037;-66
2023/04/28 13:47:23;;;;;;;2.70;1.03;;;;;;;;;;4985633;28;20048;-69
2023/04/28 13:49:49;;;;;;;3.60;1.03;;;;;;;;;;4990039;28;20076;-66
2023/04/28 13:52:15;;;;;;;4.03;1.30;;;;;;;;;;4965724;28;20518;-76
2023/04/28 13:54:40;;;;;;;3.38;1.00;;;;;;;;;;4995300;28;20031;-69
2023/04/28 13:57:06;;;;;;;2.53;1.05;;;;;;;;;;4987096;28;20046;-71
2023/04/28 13:59:31;;;;;;;2.50;1.00;;;;;;;;;;4965714;28;20058;-65
2023/04/28 14:01:57;;;;;;;3.65;1.10;;;;;;;;;;4968721;28;20042;-68
2023/04/28 14:04:22;;;;;;;3.70;1.20;;;;;;;;;;4970354;28;20061;-72
2023/04/28 14:06:49;;;;;;;2.60;1.13;;;;;;;;;;4979993;28;20384;-60
2023/04/28 14:09:14;;;;;;;2.08;1.00;;;;;;;;;;4972419;28;20375;-69
2023/04/28 14:11:39;;;;;;;3.50;1.10;;;;;;;;;;4990322;28;20488;-71
2023/04/28 14:14:05;;;;;;;3.58;1.30;;;;;;;;;;4982928;28;20320;-78
2023/04/28 14:16:30;;;;;;;2.42;0.90;;;;;;;;;;4994970;28;20116;-67
2023/04/28 14:18:55;;;;;;;1.73;0.97;;;;;;;;;;4975313;28;20199;-73
2023/04/28 14:21:20;;;;;;;3.33;1.20;;;;;;;;;;4986780;28;20042;-70
2023/04/28 14:23:46;;;;;;;2.20;1.13;;;;;;;;;;4964628;28;20289;-71
2023/04/28 14:26:11;;;;;;;2.30;0.90;;;;;;;;;;4978266;28;20285;-65
2023/04/28 14:28:37;;;;;;;3.40;1.50;;;;;;;;;;4979818;28;20061;-64
2023/04/28 14:31:04;;;;;;;3.17;1.30;;;;;;;;;;4996416;28;20344;-71
2023/04/28 14:33:30;;;;;;;2.88;1.02;;;;;;;;;;4969682;28;20040;-70
2023/04/28 14:35:55;;;;;;;1.63;1.02;;;;;;;;;;4985866;28;20457;-67